createdAt,value
2019-02-25T00:00:13.979Z,55.37
2019-02-25T00:02:45.881Z,52.67
2019-02-25T00:05:16.123Z,55.43
2019-02-25T00:07:48.169Z,58.53
2019-02-25T00:10:18.448Z,49.23
2019-02-25T00:12:49.642Z,55.20
2019-02-25T00:15:22.898Z,53.20
2019-02-25T00:17:53.292Z,56.17
2019-02-25T00:20:26.141Z,60.70
2019-02-25T00:22:56.279Z,55.33
2019-02-25T00:25:26.624Z,59.07
2019-02-25T00:27:56.979Z,55.77
2019-02-25T00:30:27.371Z,57.17
2019-02-25T00:32:57.671Z,51.20
2019-02-25T00:35:27.955Z,52.27
2019-02-25T00:37:58.313Z,49.73
2019-02-25T00:40:28.705Z,54.47
2019-02-25T00:42:59.242Z,53.07
2019-02-25T00:45:29.503Z,50.07
2019-02-25T00:47:59.858Z,44.37
2019-02-25T00:50:30.168Z,48.03
2019-02-25T00:53:01.321Z,46.43
2019-02-25T00:55:31.679Z,44.43
2019-02-25T00:58:01.993Z,48.93
2019-02-25T01:00:32.353Z,48.60
2019-02-25T01:03:02.828Z,46.23
2019-02-25T01:05:33.098Z,46.57
2019-02-25T01:08:03.643Z,43.00
2019-02-25T01:10:33.933Z,48.40
2019-02-25T01:13:04.412Z,45.20
2019-02-25T01:15:34.771Z,48.10
2019-02-25T01:18:05.065Z,43.40
2019-02-25T01:20:35.353Z,43.53
2019-02-25T01:23:06.254Z,44.50
2019-02-25T01:25:36.647Z,45.20
2019-02-25T01:28:06.901Z,47.20
2019-02-25T01:30:37.234Z,44.97
2019-02-25T01:33:07.531Z,40.00
2019-02-25T01:35:37.917Z,48.47
2019-02-25T01:38:09.295Z,46.03
2019-02-25T01:40:39.703Z,44.47
2019-02-25T01:43:10.132Z,45.03
2019-02-25T01:45:40.516Z,49.00
2019-02-25T01:48:13.727Z,42.43
2019-02-25T01:50:44.126Z,40.23
2019-02-25T01:53:14.489Z,44.50
2019-02-25T01:55:44.712Z,43.00
2019-02-25T01:58:15.083Z,42.43
2019-02-25T02:00:45.393Z,41.23
2019-02-25T02:03:15.744Z,43.43
2019-02-25T02:05:46.106Z,39.10
2019-02-25T02:08:16.400Z,41.03
2019-02-25T02:10:46.908Z,40.70
2019-02-25T02:13:17.252Z,37.63
2019-02-25T02:15:48.122Z,39.57
2019-02-25T02:18:18.504Z,40.87
2019-02-25T02:20:48.888Z,42.60
2019-02-25T02:23:19.149Z,43.07
2019-02-25T02:25:49.617Z,42.93
2019-02-25T02:28:19.992Z,44.10
2019-02-25T02:30:50.397Z,39.53
2019-02-25T02:33:20.688Z,38.60
2019-02-25T02:35:51.624Z,42.23
2019-02-25T02:38:21.905Z,41.53
2019-02-25T02:40:53.792Z,40.67
2019-02-25T02:43:24.153Z,42.03
2019-02-25T02:46:02.074Z,44.97
2019-02-25T02:48:48.165Z,43.97
2019-02-25T02:51:18.478Z,44.10
2019-02-25T02:53:48.732Z,45.27
2019-02-25T02:56:18.985Z,43.60
2019-02-25T02:58:50.636Z,47.30
2019-02-25T03:01:21.052Z,42.57
2019-02-25T03:03:51.309Z,41.43
2019-02-25T03:06:21.619Z,39.10
2019-02-25T03:08:52.421Z,36.40
2019-02-25T03:11:22.641Z,33.03
2019-02-25T03:13:53.245Z,36.60
2019-02-25T03:16:23.656Z,34.63
2019-02-25T03:18:54.023Z,32.30
2019-02-25T03:21:24.281Z,36.67
2019-02-25T03:23:54.736Z,33.13
2019-02-25T03:26:25.031Z,33.30
2019-02-25T03:28:55.397Z,31.33
2019-02-25T03:31:27.289Z,30.03
2019-02-25T03:33:57.591Z,29.20
2019-02-25T03:36:27.905Z,30.40
2019-02-25T03:38:58.256Z,35.27
2019-02-25T03:41:28.616Z,33.90
2019-02-25T03:43:58.980Z,30.17
2019-02-25T03:46:29.263Z,32.03
2019-02-25T03:48:59.520Z,34.43
2019-02-25T03:51:29.782Z,31.70
2019-02-25T03:54:00.034Z,31.40
2019-02-25T03:56:30.293Z,29.30
2019-02-25T03:59:00.587Z,28.90
2019-02-25T04:01:30.844Z,28.93
2019-02-25T04:04:01.125Z,31.77
2019-02-25T04:06:31.518Z,31.07
2019-02-25T04:09:01.881Z,33.13
2019-02-25T04:11:34.140Z,32.67
2019-02-25T04:14:04.534Z,35.83
2019-02-25T04:16:34.763Z,38.57
2019-02-25T04:19:05.129Z,36.83
2019-02-25T04:21:35.384Z,38.77
2019-02-25T04:24:05.812Z,37.57
2019-02-25T04:26:36.099Z,40.33
2019-02-25T04:29:06.376Z,40.43
2019-02-25T04:31:36.606Z,42.77
2019-02-25T04:34:06.908Z,42.93
2019-02-25T04:36:37.131Z,37.13
2019-02-25T04:39:07.395Z,40.20
2019-02-25T04:41:37.628Z,39.23
2019-02-25T04:44:08.425Z,38.10
2019-02-25T04:46:38.688Z,43.00
2019-02-25T04:49:08.972Z,48.03
2019-02-25T04:51:40.218Z,40.37
2019-02-25T04:54:10.500Z,45.43
2019-02-25T04:56:42.392Z,39.27
2019-02-25T04:59:12.948Z,35.53
2019-02-25T05:01:43.279Z,38.83
2019-02-25T05:04:16.216Z,38.37
2019-02-25T05:06:46.471Z,37.50
2019-02-25T05:09:18.412Z,41.70
2019-02-25T05:11:48.747Z,46.60
2019-02-25T05:14:19.539Z,37.67
2019-02-25T05:16:49.834Z,36.33
2019-02-25T05:19:20.234Z,38.43
2019-02-25T05:21:50.611Z,36.77
2019-02-25T05:24:21.061Z,39.10
2019-02-25T05:26:51.433Z,38.03
2019-02-25T05:29:21.814Z,39.20
2019-02-25T05:31:52.180Z,37.57
2019-02-25T05:34:22.500Z,35.13
2019-02-25T05:36:52.831Z,42.40
2019-02-25T05:39:23.192Z,37.80
2019-02-25T05:41:53.541Z,38.27
2019-02-25T05:44:23.900Z,45.17
2019-02-25T05:46:54.179Z,45.03
2019-02-25T05:49:26.040Z,45.83
2019-02-25T05:51:56.324Z,45.33
2019-02-25T05:54:26.644Z,50.27
2019-02-25T05:56:57.013Z,44.80
2019-02-25T05:59:27.452Z,46.60
2019-02-25T06:01:58.862Z,48.10
2019-02-25T06:04:29.377Z,43.37
2019-02-25T06:06:59.888Z,47.83
2019-02-25T06:09:30.255Z,44.37
2019-02-25T06:12:00.699Z,41.93
2019-02-25T06:14:31.294Z,41.60
2019-02-25T06:17:01.726Z,41.27
2019-02-25T06:19:32.193Z,44.00
2019-02-25T06:22:02.644Z,46.60
2019-02-25T06:24:34.032Z,43.63
2019-02-25T06:27:04.498Z,41.17
2019-02-25T06:29:35.094Z,44.60
2019-02-25T06:32:05.641Z,42.73
2019-02-25T06:34:36.677Z,41.23
2019-02-25T06:37:07.032Z,43.43
2019-02-25T06:39:37.513Z,49.23
2019-02-25T06:42:08.037Z,41.43
2019-02-25T06:44:38.626Z,41.13
2019-02-25T06:47:09.249Z,39.70
2019-02-25T06:49:39.831Z,39.80
2019-02-25T06:52:10.272Z,40.33
2019-02-25T06:54:40.695Z,37.50
2019-02-25T06:57:11.171Z,40.30
2019-02-25T06:59:41.619Z,43.60
2019-02-25T07:02:11.954Z,41.83
2019-02-25T07:04:49.573Z,37.97
2019-02-25T07:07:48.183Z,40.40
2019-02-25T07:10:30.750Z,37.97
2019-02-25T07:13:11.800Z,41.07
2019-02-25T07:15:57.456Z,44.43
2019-02-25T07:18:45.563Z,43.67
2019-02-25T07:21:33.816Z,39.40
2019-02-25T07:24:26.251Z,40.13
2019-02-25T07:27:18.462Z,42.57
2019-02-25T07:30:08.137Z,41.20
2019-02-25T07:32:57.552Z,45.70
2019-02-25T07:35:37.852Z,39.60
2019-02-25T07:38:27.224Z,39.23
2019-02-25T07:41:17.923Z,41.90
2019-02-25T07:44:25.871Z,41.37
2019-02-25T07:47:19.765Z,45.90
2019-02-25T07:50:08.836Z,40.30
2019-02-25T07:52:48.874Z,42.97
2019-02-25T07:55:29.990Z,41.40
2019-02-25T07:58:13.942Z,42.27
2019-02-25T08:00:53.687Z,41.40
2019-02-25T08:03:30.416Z,41.83
2019-02-25T08:06:31.633Z,48.83
2019-02-25T08:09:20.629Z,41.90
2019-02-25T08:12:17.515Z,45.33
2019-02-25T08:15:22.103Z,43.20
2019-02-25T08:18:13.569Z,42.50
2019-02-25T08:21:14.809Z,40.63
2019-02-25T08:24:11.068Z,40.70
2019-02-25T08:27:00.953Z,40.83
2019-02-25T08:29:48.940Z,45.60
2019-02-25T08:32:32.468Z,40.63
2019-02-25T08:35:20.568Z,40.73
2019-02-25T08:38:21.755Z,45.87
2019-02-25T08:41:26.526Z,40.07
2019-02-25T08:44:08.709Z,45.83
2019-02-25T08:46:49.282Z,40.50
2019-02-25T08:49:31.517Z,40.20
2019-02-25T08:52:04.735Z,40.27
2019-02-25T08:54:36.735Z,53.67
2019-02-25T08:57:08.948Z,38.43
2019-02-25T08:59:39.430Z,40.60
2019-02-25T09:02:09.864Z,71.23
2019-02-25T09:04:42.297Z,43.60
2019-02-25T09:07:12.636Z,38.00
2019-02-25T09:09:45.361Z,38.27
2019-02-25T09:12:20.864Z,38.10
2019-02-25T09:14:56.068Z,37.23
2019-02-25T09:17:28.944Z,31.90
2019-02-25T09:19:59.257Z,32.97
2019-02-25T09:22:31.300Z,31.07
2019-02-25T09:25:01.682Z,32.03
2019-02-25T09:27:34.202Z,37.83
2019-02-25T09:30:05.219Z,32.57
2019-02-25T09:32:35.876Z,29.83
2019-02-25T09:35:06.467Z,29.10
2019-02-25T09:37:37.338Z,31.47
2019-02-25T09:40:10.550Z,30.57
2019-02-25T09:42:41.000Z,28.33
2019-02-25T09:45:12.984Z,28.03
2019-02-25T09:47:43.447Z,27.67
2019-02-25T09:50:14.140Z,30.53
2019-02-25T09:52:44.444Z,27.97
2019-02-25T09:55:14.897Z,28.63
2019-02-25T09:57:46.632Z,29.33
2019-02-25T10:00:17.161Z,26.33
2019-02-25T10:02:48.982Z,23.37
2019-02-25T10:05:20.095Z,27.80
2019-02-25T10:07:50.539Z,28.67
2019-02-25T10:10:20.979Z,25.57
2019-02-25T10:12:51.485Z,31.90
2019-02-25T10:15:21.779Z,31.37
2019-02-25T10:17:52.067Z,23.37
2019-02-25T10:20:22.311Z,22.80
2019-02-25T10:22:52.623Z,21.53
2019-02-25T10:25:22.943Z,21.67
2019-02-25T10:27:53.727Z,25.80
2019-02-25T10:30:24.053Z,20.27
2019-02-25T10:32:54.381Z,21.93
2019-02-25T10:35:25.019Z,24.57
2019-02-25T10:37:58.554Z,22.67
2019-02-25T10:40:28.876Z,20.77
2019-02-25T10:42:59.938Z,20.60
2019-02-25T10:45:30.250Z,21.73
2019-02-25T10:48:00.816Z,25.27
2019-02-25T10:50:33.382Z,20.67
2019-02-25T10:53:03.848Z,17.80
2019-02-25T10:55:44.360Z,19.67
2019-02-25T10:58:14.212Z,23.80
2019-02-25T11:00:46.090Z,21.77
2019-02-25T11:03:17.983Z,37.87
2019-02-25T11:05:48.800Z,20.80
2019-02-25T11:08:21.583Z,25.70
2019-02-25T11:10:57.990Z,90.20
2019-02-25T11:13:29.755Z,21.23
2019-02-25T11:16:00.700Z,20.03
2019-02-25T11:18:31.197Z,23.37
2019-02-25T11:21:03.611Z,19.97
2019-02-25T11:23:34.713Z,21.50
2019-02-25T11:26:05.213Z,16.93
2019-02-25T11:28:38.438Z,17.50
2019-02-25T11:31:07.964Z,17.67
2019-02-25T11:33:38.329Z,20.23
2019-02-25T11:36:10.447Z,25.90
2019-02-25T11:38:40.941Z,21.40
2019-02-25T11:41:12.719Z,25.60
2019-02-25T11:43:43.978Z,19.43
2019-02-25T11:46:15.424Z,38.23
2019-02-25T11:48:47.513Z,23.27
2019-02-25T11:51:18.562Z,25.63
2019-02-25T11:53:48.918Z,31.70
2019-02-25T11:56:22.274Z,22.57
2019-02-25T11:58:52.705Z,16.63
2019-02-25T12:01:23.086Z,23.63
2019-02-25T12:03:53.579Z,20.60
2019-02-25T12:06:23.978Z,17.13
2019-02-25T12:08:54.369Z,19.83
2019-02-25T12:11:24.927Z,18.97
2019-02-25T12:13:55.299Z,16.47
2019-02-25T12:16:26.328Z,16.17
2019-02-25T12:18:57.143Z,16.20
2019-02-25T12:21:28.788Z,17.63
2019-02-25T12:23:59.216Z,16.10
2019-02-25T12:26:29.761Z,17.87
2019-02-25T12:29:10.626Z,16.83
2019-02-25T12:31:35.976Z,15.43
2019-02-25T12:34:08.004Z,15.50
2019-02-25T12:36:39.432Z,18.90
2019-02-25T12:39:10.932Z,17.43
2019-02-25T12:41:41.364Z,13.80
2019-02-25T12:44:11.795Z,17.33
2019-02-25T12:46:42.262Z,15.77
2019-02-25T12:49:13.873Z,16.33
2019-02-25T12:51:44.739Z,13.57
2019-02-25T12:54:18.005Z,14.53
2019-02-25T12:56:48.484Z,46.23
2019-02-25T12:59:19.657Z,45.03
2019-02-25T13:01:50.016Z,18.83
2019-02-25T13:04:20.820Z,16.43
2019-02-25T13:06:51.320Z,13.80
2019-02-25T13:09:21.758Z,17.63
2019-02-25T13:11:52.280Z,17.67
2019-02-25T13:14:22.745Z,13.90
2019-02-25T13:16:53.326Z,15.17
2019-02-25T13:19:23.944Z,15.07
2019-02-25T13:21:54.756Z,17.93
2019-02-25T13:24:26.209Z,17.20
2019-02-25T13:26:56.969Z,15.97
2019-02-25T13:29:29.023Z,15.07
2019-02-25T13:31:59.557Z,15.53
2019-02-25T13:34:29.969Z,16.27
2019-02-25T13:37:00.409Z,13.17
2019-02-25T13:39:32.426Z,14.03
2019-02-25T13:42:02.847Z,12.43
2019-02-25T13:44:37.108Z,15.33
2019-02-25T13:47:08.712Z,13.60
2019-02-25T13:49:39.068Z,13.67
2019-02-25T13:52:09.897Z,13.27
2019-02-25T13:54:40.331Z,15.37
2019-02-25T13:57:10.718Z,14.40
2019-02-25T13:59:41.417Z,13.67
2019-02-25T14:02:14.827Z,12.00
2019-02-25T14:04:45.540Z,12.27
2019-02-25T14:07:16.192Z,13.40
2019-02-25T14:09:46.591Z,14.40
2019-02-25T14:12:18.709Z,12.57
2019-02-25T14:14:49.114Z,12.10
2019-02-25T14:17:20.792Z,16.43
2019-02-25T14:19:52.063Z,14.77
2019-02-25T14:22:22.514Z,13.83
2019-02-25T14:24:53.146Z,10.57
2019-02-25T14:27:23.565Z,14.87
2019-02-25T14:29:55.372Z,11.83
2019-02-25T14:32:27.813Z,11.10
2019-02-25T14:34:58.001Z,10.70
2019-02-25T14:37:30.419Z,11.20
2019-02-25T14:40:04.068Z,12.58
2019-02-25T14:42:36.372Z,14.07
2019-02-25T14:45:09.324Z,13.93
2019-02-25T14:47:40.079Z,12.57
2019-02-25T14:50:14.254Z,14.03
2019-02-25T14:52:45.190Z,13.90
2019-02-25T14:55:16.071Z,14.10
2019-02-25T14:57:46.743Z,16.63
2019-02-25T15:00:23.372Z,16.20
2019-02-25T15:02:53.451Z,11.17
2019-02-25T15:05:24.961Z,12.60
2019-02-25T15:07:55.367Z,15.27
2019-02-25T15:10:29.091Z,16.33
2019-02-25T15:12:59.106Z,18.17
2019-02-25T15:15:30.262Z,18.27
2019-02-25T15:18:04.928Z,17.80
2019-02-25T15:20:35.983Z,17.87
2019-02-25T15:23:07.471Z,15.77
2019-02-25T15:25:42.129Z,15.27
2019-02-25T15:28:13.620Z,20.33
2019-02-25T15:30:46.043Z,22.63
2019-02-25T15:33:17.516Z,19.57
2019-02-25T15:35:48.114Z,22.13
2019-02-25T15:38:18.907Z,19.77
2019-02-25T15:40:49.390Z,20.97
2019-02-25T15:43:21.293Z,25.37
2019-02-25T15:45:52.239Z,26.03
2019-02-25T15:48:28.684Z,22.77
2019-02-25T15:51:04.087Z,22.43
2019-02-25T15:53:42.419Z,24.47
2019-02-25T15:56:13.339Z,27.77
2019-02-25T15:58:43.807Z,23.47
2019-02-25T16:01:19.856Z,28.93
2019-02-25T16:03:56.524Z,22.80
2019-02-25T16:06:29.634Z,48.87
2019-02-25T16:09:02.932Z,31.00
2019-02-25T16:11:36.644Z,31.03
2019-02-25T16:14:07.137Z,25.97
2019-02-25T16:16:38.983Z,22.43
2019-02-25T16:19:09.717Z,23.57
2019-02-25T16:21:42.770Z,22.30
2019-02-25T16:24:18.712Z,19.47
2019-02-25T16:26:49.529Z,17.10
2019-02-25T16:29:26.348Z,15.20
2019-02-25T16:32:01.874Z,15.80
2019-02-25T16:34:42.646Z,17.90
2019-02-25T16:37:12.021Z,23.97
2019-02-25T16:39:42.176Z,15.93
2019-02-25T16:42:12.757Z,18.73
2019-02-25T16:44:44.146Z,17.03
2019-02-25T16:47:15.990Z,20.80
2019-02-25T16:49:50.345Z,17.97
2019-02-25T16:52:24.508Z,16.90
2019-02-25T16:55:08.742Z,21.43
2019-02-25T16:57:41.183Z,19.17
2019-02-25T17:00:14.505Z,20.87
2019-02-25T17:02:47.871Z,18.60
2019-02-25T17:05:20.192Z,19.07
2019-02-25T17:07:57.554Z,16.13
2019-02-25T17:10:29.681Z,16.60
2019-02-25T17:13:00.171Z,17.93
2019-02-25T17:15:30.677Z,23.63
2019-02-25T17:18:03.290Z,26.30
2019-02-25T17:20:34.200Z,20.90
2019-02-25T17:23:04.759Z,22.20
2019-02-25T17:25:36.191Z,22.30
2019-02-25T17:28:14.506Z,20.33
2019-02-25T17:30:43.387Z,23.97
2019-02-25T17:33:15.355Z,23.77
2019-02-25T17:35:47.590Z,24.53
2019-02-25T17:38:20.929Z,26.57
2019-02-25T17:40:52.649Z,24.07
2019-02-25T17:43:23.464Z,25.20
2019-02-25T17:45:58.266Z,24.00
2019-02-25T17:48:31.711Z,25.20
2019-02-25T17:51:03.954Z,26.40
2019-02-25T17:53:34.833Z,30.33
2019-02-25T17:56:05.559Z,26.77
2019-02-25T17:58:38.267Z,26.23
2019-02-25T18:01:09.909Z,31.27
2019-02-25T18:03:42.238Z,29.33
2019-02-25T18:06:13.127Z,35.70
2019-02-25T18:08:43.826Z,36.23
2019-02-25T18:11:15.744Z,31.80
2019-02-25T18:13:48.810Z,28.20
2019-02-25T18:16:20.739Z,29.80
2019-02-25T18:18:54.355Z,54.23
2019-02-25T18:21:28.285Z,38.67
2019-02-25T18:23:57.566Z,52.10
2019-02-25T18:26:34.444Z,57.57
2019-02-25T18:29:05.572Z,35.17
2019-02-25T18:31:37.171Z,33.10
2019-02-25T18:34:09.183Z,31.57
2019-02-25T18:36:40.708Z,29.57
2019-02-25T18:39:14.573Z,37.03
2019-02-25T18:41:46.085Z,33.63
2019-02-25T18:44:17.870Z,31.33
2019-02-25T18:46:49.898Z,36.67
2019-02-25T18:49:21.079Z,31.77
2019-02-25T18:51:53.835Z,39.90
2019-02-25T18:54:25.481Z,30.13
2019-02-25T18:56:56.995Z,32.43
2019-02-25T18:59:29.219Z,31.87
2019-02-25T19:01:59.827Z,30.70
2019-02-25T19:04:45.637Z,29.93
2019-02-25T19:07:17.137Z,29.63
2019-02-25T19:09:49.333Z,32.00
2019-02-25T19:12:19.950Z,33.37
2019-02-25T19:14:53.008Z,29.37
2019-02-25T19:17:31.479Z,30.20
2019-02-25T19:20:02.238Z,31.93
2019-02-25T19:22:35.425Z,34.30
2019-02-25T19:25:09.429Z,30.13
2019-02-25T19:27:39.044Z,32.27
2019-02-25T19:30:10.016Z,33.87
2019-02-25T19:32:40.821Z,35.93
2019-02-25T19:35:14.663Z,32.20
2019-02-25T19:37:46.896Z,35.33
2019-02-25T19:40:21.847Z,36.00
2019-02-25T19:42:54.107Z,46.30
2019-02-25T19:45:24.966Z,44.70
2019-02-25T19:47:57.726Z,35.90
2019-02-25T19:50:32.898Z,37.73
2019-02-25T19:53:19.995Z,50.40
2019-02-25T19:55:55.585Z,40.70
2019-02-25T19:58:36.458Z,40.57
2019-02-25T20:01:13.474Z,50.93
2019-02-25T20:03:47.720Z,41.70
2019-02-25T20:06:19.184Z,40.43
2019-02-25T20:08:51.098Z,38.27
2019-02-25T20:11:22.202Z,36.90
2019-02-25T20:13:52.642Z,37.73
2019-02-25T20:16:25.976Z,39.13
2019-02-25T20:18:56.038Z,44.63
2019-02-25T20:21:29.327Z,44.47
2019-02-25T20:24:00.860Z,44.73
2019-02-25T20:26:32.704Z,45.33
2019-02-25T20:29:12.747Z,44.07
2019-02-25T20:31:43.319Z,47.60
2019-02-25T20:34:16.549Z,39.87
2019-02-25T20:36:47.979Z,45.13
2019-02-25T20:39:18.086Z,48.87
2019-02-25T20:41:52.201Z,50.27
2019-02-25T20:44:24.174Z,40.43
2019-02-25T20:46:57.262Z,41.40
2019-02-25T20:49:31.858Z,39.93
2019-02-25T20:52:02.377Z,43.10
2019-02-25T20:54:37.321Z,45.77
2019-02-25T20:57:04.956Z,42.23
2019-02-25T20:59:35.400Z,40.67
2019-02-25T21:02:09.688Z,41.57
2019-02-25T21:04:38.759Z,41.33
2019-02-25T21:07:13.128Z,45.43
2019-02-25T21:09:43.558Z,36.73
2019-02-25T21:12:17.689Z,37.90
2019-02-25T21:14:47.370Z,38.10
2019-02-25T21:17:17.792Z,38.13
2019-02-25T21:19:48.238Z,39.97
2019-02-25T21:22:23.174Z,36.47
2019-02-25T21:24:55.737Z,36.83
2019-02-25T21:27:28.337Z,40.20
2019-02-25T21:29:57.320Z,40.27
2019-02-25T21:32:28.939Z,46.97
2019-02-25T21:35:04.181Z,52.27
2019-02-25T21:37:34.000Z,51.20
2019-02-25T21:40:05.695Z,54.90
2019-02-25T21:42:39.045Z,53.50
2019-02-25T21:45:15.998Z,66.83
2019-02-25T21:47:43.740Z,61.53
2019-02-25T21:50:15.097Z,59.67
2019-02-25T21:52:46.136Z,57.73
2019-02-25T21:55:18.235Z,60.27
2019-02-25T21:57:48.658Z,50.07
2019-02-25T22:00:19.011Z,39.63
2019-02-25T22:02:50.905Z,44.87
2019-02-25T22:05:23.577Z,50.30
2019-02-25T22:07:57.780Z,45.57
2019-02-25T22:10:27.555Z,52.87
2019-02-25T22:13:04.240Z,48.20
2019-02-25T22:15:31.705Z,56.57
2019-02-25T22:18:03.814Z,55.17
2019-02-25T22:20:37.661Z,54.07
2019-02-25T22:23:07.999Z,44.50
2019-02-25T22:25:38.489Z,44.57
2019-02-25T22:28:09.967Z,45.77
2019-02-25T22:30:42.925Z,42.90
2019-02-25T22:33:25.010Z,42.60
2019-02-25T22:35:47.585Z,41.40
2019-02-25T22:38:17.911Z,41.57
2019-02-25T22:40:48.450Z,43.40
2019-02-25T22:43:20.780Z,37.57
2019-02-25T22:45:51.032Z,44.23
2019-02-25T22:48:23.202Z,45.23
2019-02-25T22:50:55.346Z,44.63
2019-02-25T22:53:25.348Z,41.83
2019-02-25T22:55:55.724Z,42.03
2019-02-25T22:58:27.886Z,54.47
2019-02-25T23:01:06.864Z,42.27
2019-02-25T23:03:41.009Z,40.43
2019-02-25T23:06:15.772Z,42.67
2019-02-25T23:08:48.344Z,45.63
2019-02-25T23:11:19.772Z,41.57
2019-02-25T23:13:52.418Z,41.07
2019-02-25T23:16:24.944Z,42.10
2019-02-25T23:18:54.644Z,43.17
2019-02-25T23:21:28.718Z,41.23
2019-02-25T23:24:00.490Z,48.17
2019-02-25T23:26:32.443Z,40.50
2019-02-25T23:29:02.866Z,43.87
2019-02-25T23:31:34.836Z,43.13
2019-02-25T23:34:07.556Z,41.40
2019-02-25T23:36:40.575Z,42.77
2019-02-25T23:39:09.908Z,45.87
2019-02-25T23:41:43.813Z,49.67
2019-02-25T23:44:15.068Z,45.50
2019-02-25T23:46:45.946Z,43.93
2019-02-25T23:49:16.237Z,46.17
2019-02-25T23:51:48.137Z,46.50
2019-02-25T23:54:21.493Z,49.50
2019-02-25T23:56:52.539Z,52.40
2019-02-25T23:59:24.767Z,49.37
